sensor_id;sensor_type;location;lat;lon;timestamp;pressure;altitude;pressure_sealevel;temperature;humidity
25420;BME280;13354;48.174;11.566;2023-10-31T00:01:02;94263.03;;;11.08;100.00
25420;BME280;13354;48.174;11.566;2023-10-31T00:03:28;94251.63;;;10.96;100.00
25420;BME280;13354;48.174;11.566;2023-10-31T00:05:53;94267.06;;;10.87;100.00
25420;BME280;13354;48.174;11.566;2023-10-31T00:08:18;94258.84;;;10.77;100.00
25420;BME280;13354;48.174;11.566;2023-10-31T00:10:44;94262.91;;;10.79;100.00
25420;BME280;13354;48.174;11.566;2023-10-31T00:13:11;94263.59;;;10.86;100.00
25420;BME280;13354;48.174;11.566;2023-10-31T00:15:37;94264.97;;;10.77;100.00
25420;BME280;13354;48.174;11.566;2023-10-31T00:18:02;94257.97;;;10.83;100.00
25420;BME280;13354;48.174;11.566;2023-10-31T00:20:28;94254.91;;;10.68;100.00
25420;BME280;13354;48.174;11.566;2023-10-31T00:22:53;94251.25;;;10.69;100.00
25420;BME280;13354;48.174;11.566;2023-10-31T00:25:18;94261.13;;;10.61;100.00
25420;BME280;13354;48.174;11.566;2023-10-31T00:27:44;94266.44;;;10.61;100.00
25420;BME280;13354;48.174;11.566;2023-10-31T00:30:10;94269.28;;;10.60;100.00
25420;BME280;13354;48.174;11.566;2023-10-31T00:32:36;94263.03;;;10.43;100.00
25420;BME280;13354;48.174;11.566;2023-10-31T00:35:01;94273.75;;;10.48;100.00
25420;BME280;13354;48.174;11.566;2023-10-31T00:37:26;94263.97;;;10.48;100.00
25420;BME280;13354;48.174;11.566;2023-10-31T00:39:52;94266.50;;;10.55;100.00
25420;BME280;13354;48.174;11.566;2023-10-31T00:42:17;94263.75;;;10.50;100.00
25420;BME280;13354;48.174;11.566;2023-10-31T00:44:43;94260.47;;;10.36;100.00
25420;BME280;13354;48.174;11.566;2023-10-31T00:47:08;94267.97;;;10.39;100.00
25420;BME280;13354;48.174;11.566;2023-10-31T00:49:34;94263.41;;;10.46;100.00
25420;BME280;13354;48.174;11.566;2023-10-31T00:51:59;94262.34;;;10.47;100.00
25420;BME280;13354;48.174;11.566;2023-10-31T00:54:24;94258.31;;;10.45;100.00
25420;BME280;13354;48.174;11.566;2023-10-31T00:56:50;94261.53;;;10.35;100.00
25420;BME280;13354;48.174;11.566;2023-10-31T00:59:15;94264.25;;;10.28;100.00
25420;BME280;13354;48.174;11.566;2023-10-31T01:01:42;94274.22;;;10.26;100.00
25420;BME280;13354;48.174;11.566;2023-10-31T01:04:07;94274.22;;;10.26;100.00
25420;BME280;13354;48.174;11.566;2023-10-31T01:06:33;94261.00;;;10.26;100.00
25420;BME280;13354;48.174;11.566;2023-10-31T01:08:58;94272.09;;;10.35;100.00
25420;BME280;13354;48.174;11.566;2023-10-31T01:11:24;94271.19;;;10.41;100.00
25420;BME280;13354;48.174;11.566;2023-10-31T01:13:49;94274.19;;;10.45;100.00
25420;BME280;13354;48.174;11.566;2023-10-31T01:16:14;94267.16;;;10.38;100.00
25420;BME280;13354;48.174;11.566;2023-10-31T01:18:40;94272.34;;;10.45;100.00
25420;BME280;13354;48.174;11.566;2023-10-31T01:21:05;94277.50;;;10.40;100.00
25420;BME280;13354;48.174;11.566;2023-10-31T01:23:31;94283.16;;;10.44;100.00
25420;BME280;13354;48.174;11.566;2023-10-31T01:25:56;94275.47;;;10.42;100.00
25420;BME280;13354;48.174;11.566;2023-10-31T01:28:21;94279.28;;;10.46;100.00
25420;BME280;13354;48.174;11.566;2023-10-31T01:30:47;94275.66;;;10.40;100.00
25420;BME280;13354;48.174;11.566;2023-10-31T01:33:12;94283.75;;;10.46;100.00
25420;BME280;13354;48.174;11.566;2023-10-31T01:35:37;94279.38;;;10.51;100.00
25420;BME280;13354;48.174;11.566;2023-10-31T01:38:03;94285.28;;;10.53;100.00
25420;BME280;13354;48.174;11.566;2023-10-31T01:40:28;94286.16;;;10.47;100.00
25420;BME280;13354;48.174;11.566;2023-10-31T01:42:55;94293.34;;;10.58;100.00
25420;BME280;13354;48.174;11.566;2023-10-31T01:45:20;94286.44;;;10.57;100.00
25420;BME280;13354;48.174;11.566;2023-10-31T01:47:48;94291.00;;;10.50;100.00
25420;BME280;13354;48.174;11.566;2023-10-31T01:50:14;94290.78;;;10.52;100.00
25420;BME280;13354;48.174;11.566;2023-10-31T01:52:40;94288.78;;;10.35;100.00
25420;BME280;13354;48.174;11.566;2023-10-31T01:55:05;94283.44;;;10.54;100.00
25420;BME280;13354;48.174;11.566;2023-10-31T01:57:32;94285.84;;;10.55;100.00
25420;BME280;13354;48.174;11.566;2023-10-31T01:59:58;94282.81;;;10.40;100.00
25420;BME280;13354;48.174;11.566;2023-10-31T02:02:25;94276.13;;;10.37;100.00
25420;BME280;13354;48.174;11.566;2023-10-31T02:04:51;94278.75;;;10.37;100.00
25420;BME280;13354;48.174;11.566;2023-10-31T02:07:17;94294.44;;;10.39;100.00
25420;BME280;13354;48.174;11.566;2023-10-31T02:09:42;94292.53;;;10.28;100.00
25420;BME280;13354;48.174;11.566;2023-10-31T02:12:08;94301.63;;;10.32;100.00
25420;BME280;13354;48.174;11.566;2023-10-31T02:14:33;94300.00;;;10.31;100.00
25420;BME280;13354;48.174;11.566;2023-10-31T02:16:58;94307.41;;;10.40;100.00
25420;BME280;13354;48.174;11.566;2023-10-31T02:19:24;94307.59;;;10.27;100.00
25420;BME280;13354;48.174;11.566;2023-10-31T02:21:49;94311.63;;;10.30;100.00
25420;BME280;13354;48.174;11.566;2023-10-31T02:24:15;94310.75;;;10.36;100.00
25420;BME280;13354;48.174;11.566;2023-10-31T02:26:40;94322.50;;;10.22;100.00
25420;BME280;13354;48.174;11.566;2023-10-31T02:29:05;94326.69;;;10.11;100.00
25420;BME280;13354;48.174;11.566;2023-10-31T02:31:32;94334.84;;;10.09;100.00
25420;BME280;13354;48.174;11.566;2023-10-31T02:33:57;94340.16;;;10.28;100.00
25420;BME280;13354;48.174;11.566;2023-10-31T02:36:22;94341.75;;;10.29;100.00
25420;BME280;13354;48.174;11.566;2023-10-31T02:38:48;94339.34;;;10.09;100.00
25420;BME280;13354;48.174;11.566;2023-10-31T02:41:14;94344.88;;;10.19;100.00
25420;BME280;13354;48.174;11.566;2023-10-31T02:43:40;94343.59;;;10.28;100.00
25420;BME280;13354;48.174;11.566;2023-10-31T02:46:05;94341.31;;;10.32;100.00
25420;BME280;13354;48.174;11.566;2023-10-31T02:48:31;94339.38;;;10.21;100.00
25420;BME280;13354;48.174;11.566;2023-10-31T02:51:06;94338.59;;;10.20;100.00
25420;BME280;13354;48.174;11.566;2023-10-31T02:53:33;94349.31;;;10.07;100.00
25420;BME280;13354;48.174;11.566;2023-10-31T02:55:58;94339.97;;;10.04;100.00
25420;BME280;13354;48.174;11.566;2023-10-31T02:58:23;94324.41;;;10.14;100.00
25420;BME280;13354;48.174;11.566;2023-10-31T03:00:49;94335.06;;;10.08;100.00
25420;BME280;13354;48.174;11.566;2023-10-31T03:03:15;94335.59;;;9.98;100.00
25420;BME280;13354;48.174;11.566;2023-10-31T03:05:40;94338.44;;;9.97;100.00
25420;BME280;13354;48.174;11.566;2023-10-31T03:08:05;94347.91;;;10.04;100.00
25420;BME280;13354;48.174;11.566;2023-10-31T03:10:33;94357.63;;;9.92;100.00
25420;BME280;13354;48.174;11.566;2023-10-31T03:12:58;94356.81;;;9.91;100.00
25420;BME280;13354;48.174;11.566;2023-10-31T03:15:24;94356.22;;;10.08;100.00
25420;BME280;13354;48.174;11.566;2023-10-31T03:17:49;94357.75;;;10.15;100.00
25420;BME280;13354;48.174;11.566;2023-10-31T03:20:15;94372.81;;;9.97;100.00
25420;BME280;13354;48.174;11.566;2023-10-31T03:22:40;94372.06;;;9.89;100.00
25420;BME280;13354;48.174;11.566;2023-10-31T03:25:06;94378.75;;;9.92;100.00
25420;BME280;13354;48.174;11.566;2023-10-31T03:27:31;94373.47;;;9.92;100.00
25420;BME280;13354;48.174;11.566;2023-10-31T03:29:57;94370.53;;;10.00;100.00
25420;BME280;13354;48.174;11.566;2023-10-31T03:32:22;94361.28;;;10.09;100.00
25420;BME280;13354;48.174;11.566;2023-10-31T03:34:47;94349.25;;;10.13;100.00
25420;BME280;13354;48.174;11.566;2023-10-31T03:37:13;94346.00;;;10.11;100.00
25420;BME280;13354;48.174;11.566;2023-10-31T03:39:38;94350.47;;;9.92;100.00
25420;BME280;13354;48.174;11.566;2023-10-31T03:42:04;94349.75;;;9.85;100.00
25420;BME280;13354;48.174;11.566;2023-10-31T03:44:30;94349.25;;;9.95;100.00
25420;BME280;13354;48.174;11.566;2023-10-31T03:46:56;94351.72;;;9.90;100.00
25420;BME280;13354;48.174;11.566;2023-10-31T03:49:21;94347.03;;;9.92;100.00
25420;BME280;13354;48.174;11.566;2023-10-31T03:51:46;94342.41;;;10.06;100.00
25420;BME280;13354;48.174;11.566;2023-10-31T03:54:12;94350.19;;;10.01;100.00
25420;BME280;13354;48.174;11.566;2023-10-31T03:56:42;94355.84;;;10.04;100.00
25420;BME280;13354;48.174;11.566;2023-10-31T03:59:08;94361.06;;;10.11;100.00
25420;BME280;13354;48.174;11.566;2023-10-31T04:01:33;94373.47;;;9.92;100.00
25420;BME280;13354;48.174;11.566;2023-10-31T04:03:59;94381.63;;;10.09;100.00
25420;BME280;13354;48.174;11.566;2023-10-31T04:06:24;94379.88;;;10.03;100.00
25420;BME280;13354;48.174;11.566;2023-10-31T04:08:49;94381.72;;;10.02;100.00
25420;BME280;13354;48.174;11.566;2023-10-31T04:11:15;94374.16;;;10.06;100.00
25420;BME280;13354;48.174;11.566;2023-10-31T04:13:40;94369.50;;;10.01;99.81
25420;BME280;13354;48.174;11.566;2023-10-31T04:16:06;94363.13;;;9.90;100.00
25420;BME280;13354;48.174;11.566;2023-10-31T04:18:31;94366.78;;;10.08;99.99
25420;BME280;13354;48.174;11.566;2023-10-31T04:20:57;94399.56;;;10.07;98.91
25420;BME280;13354;48.174;11.566;2023-10-31T04:23:22;94401.75;;;10.10;98.34
25420;BME280;13354;48.174;11.566;2023-10-31T04:25:47;94397.34;;;10.22;96.47
25420;BME280;13354;48.174;11.566;2023-10-31T04:28:13;94419.97;;;10.18;95.28
25420;BME280;13354;48.174;11.566;2023-10-31T04:30:40;94416.16;;;10.14;94.14
25420;BME280;13354;48.174;11.566;2023-10-31T04:33:05;94427.47;;;10.21;93.59
25420;BME280;13354;48.174;11.566;2023-10-31T04:35:30;94419.91;;;10.06;94.03
25420;BME280;13354;48.174;11.566;2023-10-31T04:37:56;94420.22;;;10.16;94.11
25420;BME280;13354;48.174;11.566;2023-10-31T04:40:22;94413.88;;;10.18;94.33
25420;BME280;13354;48.174;11.566;2023-10-31T04:42:47;94413.72;;;10.12;94.08
25420;BME280;13354;48.174;11.566;2023-10-31T04:45:13;94408.09;;;10.09;93.44
25420;BME280;13354;48.174;11.566;2023-10-31T04:47:38;94411.91;;;10.13;93.95
25420;BME280;13354;48.174;11.566;2023-10-31T04:50:03;94401.22;;;10.20;93.15
25420;BME280;13354;48.174;11.566;2023-10-31T04:52:29;94408.28;;;10.07;93.77
25420;BME280;13354;48.174;11.566;2023-10-31T04:54:54;94403.81;;;10.08;94.57
25420;BME280;13354;48.174;11.566;2023-10-31T04:57:20;94399.56;;;10.07;95.35
25420;BME280;13354;48.174;11.566;2023-10-31T04:59:45;94401.38;;;10.25;94.98
25420;BME280;13354;48.174;11.566;2023-10-31T05:02:10;94398.31;;;10.09;94.67
25420;BME280;13354;48.174;11.566;2023-10-31T05:04:39;94399.06;;;10.16;95.14
25420;BME280;13354;48.174;11.566;2023-10-31T05:07:05;94402.13;;;9.95;95.68
25420;BME280;13354;48.174;11.566;2023-10-31T05:09:30;94411.97;;;10.06;95.93
25420;BME280;13354;48.174;11.566;2023-10-31T05:11:56;94413.06;;;9.99;95.74
25420;BME280;13354;48.174;11.566;2023-10-31T05:14:21;94408.28;;;10.07;96.34
25420;BME280;13354;48.174;11.566;2023-10-31T05:16:46;94415.84;;;10.04;96.30
25420;BME280;13354;48.174;11.566;2023-10-31T05:19:12;94417.81;;;10.08;96.27
25420;BME280;13354;48.174;11.566;2023-10-31T05:21:37;94431.72;;;10.04;96.57
25420;BME280;13354;48.174;11.566;2023-10-31T05:24:03;94432.88;;;10.08;95.62
25420;BME280;13354;48.174;11.566;2023-10-31T05:26:28;94434.66;;;9.96;97.09
25420;BME280;13354;48.174;11.566;2023-10-31T05:28:55;94436.69;;;9.93;97.78
25420;BME280;13354;48.174;11.566;2023-10-31T05:31:22;94446.03;;;9.96;97.78
25420;BME280;13354;48.174;11.566;2023-10-31T05:33:47;94462.31;;;9.93;98.85
25420;BME280;13354;48.174;11.566;2023-10-31T05:36:23;94468.22;;;9.95;99.14
25420;BME280;13354;48.174;11.566;2023-10-31T05:38:49;94466.03;;;9.85;100.00
25420;BME280;13354;48.174;11.566;2023-10-31T05:41:14;94470.75;;;9.83;100.00
25420;BME280;13354;48.174;11.566;2023-10-31T05:43:40;94454.06;;;9.83;99.89
25420;BME280;13354;48.174;11.566;2023-10-31T05:46:06;94464.16;;;9.92;99.75
25420;BME280;13354;48.174;11.566;2023-10-31T05:48:32;94468.63;;;9.92;100.00
25420;BME280;13354;48.174;11.566;2023-10-31T05:50:57;94468.38;;;9.75;100.00
25420;BME280;13354;48.174;11.566;2023-10-31T05:53:22;94480.94;;;9.80;100.00
25420;BME280;13354;48.174;11.566;2023-10-31T05:55:48;94483.41;;;9.75;100.00
25420;BME280;13354;48.174;11.566;2023-10-31T05:58:13;94487.69;;;9.76;100.00
25420;BME280;13354;48.174;11.566;2023-10-31T06:00:39;94486.63;;;9.83;100.00
25420;BME280;13354;48.174;11.566;2023-10-31T06:03:04;94487.94;;;9.92;100.00
25420;BME280;13354;48.174;11.566;2023-10-31T06:05:30;94490.06;;;9.84;100.00
25420;BME280;13354;48.174;11.566;2023-10-31T06:07:55;94495.94;;;9.86;100.00
25420;BME280;13354;48.174;11.566;2023-10-31T06:10:21;94488.28;;;9.78;100.00
25420;BME280;13354;48.174;11.566;2023-10-31T06:12:47;94487.31;;;9.72;100.00
25420;BME280;13354;48.174;11.566;2023-10-31T06:15:12;94481.72;;;9.87;100.00
25420;BME280;13354;48.174;11.566;2023-10-31T06:17:38;94487.84;;;10.06;99.67
25420;BME280;13354;48.174;11.566;2023-10-31T06:20:03;94489.19;;;9.90;100.00
25420;BME280;13354;48.174;11.566;2023-10-31T06:22:29;94495.81;;;9.99;100.00
25420;BME280;13354;48.174;11.566;2023-10-31T06:24:54;94495.72;;;9.87;100.00
25420;BME280;13354;48.174;11.566;2023-10-31T06:27:20;94502.19;;;9.91;100.00
25420;BME280;13354;48.174;11.566;2023-10-31T06:29:45;94508.06;;;9.93;100.00
25420;BME280;13354;48.174;11.566;2023-10-31T06:32:11;94521.50;;;9.92;99.67
25420;BME280;13354;48.174;11.566;2023-10-31T06:34:36;94512.34;;;9.95;99.52
25420;BME280;13354;48.174;11.566;2023-10-31T06:37:02;94506.78;;;10.03;99.04
25420;BME280;13354;48.174;11.566;2023-10-31T06:39:28;94509.78;;;9.81;100.00
25420;BME280;13354;48.174;11.566;2023-10-31T06:41:56;94510.03;;;9.80;100.00
25420;BME280;13354;48.174;11.566;2023-10-31T06:44:21;94506.97;;;10.01;99.88
25420;BME280;13354;48.174;11.566;2023-10-31T06:46:47;94513.16;;;9.95;99.32
25420;BME280;13354;48.174;11.566;2023-10-31T06:49:12;94513.03;;;10.08;99.77
25420;BME280;13354;48.174;11.566;2023-10-31T06:51:38;94513.09;;;10.02;100.00
25420;BME280;13354;48.174;11.566;2023-10-31T06:54:03;94524.84;;;10.06;99.74
25420;BME280;13354;48.174;11.566;2023-10-31T06:56:29;94529.06;;;9.88;99.69
25420;BME280;13354;48.174;11.566;2023-10-31T06:58:54;94535.88;;;10.03;99.89
25420;BME280;13354;48.174;11.566;2023-10-31T07:01:19;94538.56;;;9.96;99.85
25420;BME280;13354;48.174;11.566;2023-10-31T07:03:45;94544.81;;;10.02;98.98
25420;BME280;13354;48.174;11.566;2023-10-31T07:06:11;94553.06;;;10.12;98.96
25420;BME280;13354;48.174;11.566;2023-10-31T07:08:36;94561.66;;;10.07;99.04
25420;BME280;13354;48.174;11.566;2023-10-31T07:11:02;94554.53;;;10.08;98.40
25420;BME280;13354;48.174;11.566;2023-10-31T07:13:27;94554.41;;;10.21;98.32
25420;BME280;13354;48.174;11.566;2023-10-31T07:15:53;94568.22;;;10.23;97.60
25420;BME280;13354;48.174;11.566;2023-10-31T07:18:18;94560.94;;;10.19;97.15
25420;BME280;13354;48.174;11.566;2023-10-31T07:20:43;94556.44;;;10.26;97.07
25420;BME280;13354;48.174;11.566;2023-10-31T07:23:09;94553.94;;;10.06;97.08
25420;BME280;13354;48.174;11.566;2023-10-31T07:25:34;94554.47;;;10.14;96.37
25420;BME280;13354;48.174;11.566;2023-10-31T07:27:59;94550.88;;;10.09;96.43
25420;BME280;13354;48.174;11.566;2023-10-31T07:30:25;94547.78;;;10.12;96.02
25420;BME280;13354;48.174;11.566;2023-10-31T07:32:50;94546.13;;;10.18;94.09
25420;BME280;13354;48.174;11.566;2023-10-31T07:35:15;94535.34;;;10.12;93.17
25420;BME280;13354;48.174;11.566;2023-10-31T07:37:41;94541.84;;;10.16;92.28
25420;BME280;13354;48.174;11.566;2023-10-31T07:40:06;94555.66;;;10.19;90.89
25420;BME280;13354;48.174;11.566;2023-10-31T07:42:32;94557.88;;;10.22;88.30
25420;BME280;13354;48.174;11.566;2023-10-31T07:44:57;94547.69;;;10.25;89.01
25420;BME280;13354;48.174;11.566;2023-10-31T07:47:22;94550.50;;;10.30;88.72
25420;BME280;13354;48.174;11.566;2023-10-31T07:49:48;94557.63;;;10.30;88.99
25420;BME280;13354;48.174;11.566;2023-10-31T07:52:14;94570.00;;;10.36;87.77
25420;BME280;13354;48.174;11.566;2023-10-31T07:54:39;94573.16;;;10.45;87.04
25420;BME280;13354;48.174;11.566;2023-10-31T07:57:06;94579.78;;;10.35;87.26
25420;BME280;13354;48.174;11.566;2023-10-31T07:59:34;94571.41;;;10.38;85.98
25420;BME280;13354;48.174;11.566;2023-10-31T08:02:00;94571.69;;;10.49;86.27
25420;BME280;13354;48.174;11.566;2023-10-31T08:04:25;94563.91;;;10.35;85.70
25420;BME280;13354;48.174;11.566;2023-10-31T08:06:51;94559.88;;;10.26;85.37
25420;BME280;13354;48.174;11.566;2023-10-31T08:09:16;94559.47;;;10.29;85.49
25420;BME280;13354;48.174;11.566;2023-10-31T08:11:42;94555.97;;;10.35;85.41
25420;BME280;13354;48.174;11.566;2023-10-31T08:14:07;94558.19;;;10.38;84.54
25420;BME280;13354;48.174;11.566;2023-10-31T08:16:32;94568.97;;;10.37;84.06
25420;BME280;13354;48.174;11.566;2023-10-31T08:18:58;94580.56;;;10.36;84.37
25420;BME280;13354;48.174;11.566;2023-10-31T08:21:23;94587.75;;;10.29;84.45
25420;BME280;13354;48.174;11.566;2023-10-31T08:23:48;94592.75;;;10.37;84.62
25420;BME280;13354;48.174;11.566;2023-10-31T08:26:14;94604.81;;;10.33;84.01
25420;BME280;13354;48.174;11.566;2023-10-31T08:28:39;94629.28;;;10.22;83.57
25420;BME280;13354;48.174;11.566;2023-10-31T08:31:05;94634.81;;;10.45;82.81
25420;BME280;13354;48.174;11.566;2023-10-31T08:33:31;94645.94;;;10.29;82.58
25420;BME280;13354;48.174;11.566;2023-10-31T08:35:56;94655.50;;;10.23;82.33
25420;BME280;13354;48.174;11.566;2023-10-31T08:38:22;94658.72;;;10.38;82.38
25420;BME280;13354;48.174;11.566;2023-10-31T08:40:47;94670.25;;;10.44;82.11
25420;BME280;13354;48.174;11.566;2023-10-31T08:43:14;94671.75;;;10.33;82.53
25420;BME280;13354;48.174;11.566;2023-10-31T08:45:39;94670.66;;;10.41;83.06
25420;BME280;13354;48.174;11.566;2023-10-31T08:48:05;94681.53;;;10.33;82.26
25420;BME280;13354;48.174;11.566;2023-10-31T08:50:30;94678.53;;;10.16;82.15
25420;BME280;13354;48.174;11.566;2023-10-31T08:52:55;94677.47;;;10.30;82.21
25420;BME280;13354;48.174;11.566;2023-10-31T08:55:21;94685.78;;;10.34;82.52
25420;BME280;13354;48.174;11.566;2023-10-31T08:57:47;94689.19;;;10.41;81.56
25420;BME280;13354;48.174;11.566;2023-10-31T09:00:12;94692.31;;;10.56;80.62
25420;BME280;13354;48.174;11.566;2023-10-31T09:02:39;94690.72;;;10.55;81.01
25420;BME280;13354;48.174;11.566;2023-10-31T09:05:04;94693.63;;;10.47;80.69
25420;BME280;13354;48.174;11.566;2023-10-31T09:07:30;94695.06;;;10.50;80.21
25420;BME280;13354;48.174;11.566;2023-10-31T09:09:55;94692.97;;;10.52;80.10
25420;BME280;13354;48.174;11.566;2023-10-31T09:12:21;94692.84;;;10.47;80.75
25420;BME280;13354;48.174;11.566;2023-10-31T09:14:46;94700.91;;;10.52;81.30
25420;BME280;13354;48.174;11.566;2023-10-31T09:17:11;94701.63;;;10.66;81.09
25420;BME280;13354;48.174;11.566;2023-10-31T09:19:37;94691.06;;;10.66;80.54
25420;BME280;13354;48.174;11.566;2023-10-31T09:22:03;94701.09;;;10.82;80.05
25420;BME280;13354;48.174;11.566;2023-10-31T09:24:29;94702.16;;;10.74;80.22
25420;BME280;13354;48.174;11.566;2023-10-31T09:26:54;94717.09;;;10.69;78.61
25420;BME280;13354;48.174;11.566;2023-10-31T09:29:20;94705.09;;;10.66;79.13
25420;BME280;13354;48.174;11.566;2023-10-31T09:31:45;94699.19;;;10.64;79.60
25420;BME280;13354;48.174;11.566;2023-10-31T09:34:12;94701.91;;;10.57;79.86
25420;BME280;13354;48.174;11.566;2023-10-31T09:36:39;94708.38;;;10.61;79.68
25420;BME280;13354;48.174;11.566;2023-10-31T09:39:05;94709.19;;;10.62;79.74
25420;BME280;13354;48.174;11.566;2023-10-31T09:41:31;94721.41;;;10.63;79.67
25420;BME280;13354;48.174;11.566;2023-10-31T09:43:57;94722.13;;;10.45;80.25
25420;BME280;13354;48.174;11.566;2023-10-31T09:46:23;94724.66;;;10.65;80.17
25420;BME280;13354;48.174;11.566;2023-10-31T09:48:49;94726.22;;;10.73;79.85
25420;BME280;13354;48.174;11.566;2023-10-31T09:51:15;94726.38;;;10.78;79.56
25420;BME280;13354;48.174;11.566;2023-10-31T09:53:42;94725.03;;;10.69;79.60
25420;BME280;13354;48.174;11.566;2023-10-31T09:56:10;94721.88;;;10.78;79.30
25420;BME280;13354;48.174;11.566;2023-10-31T09:58:36;94718.16;;;10.86;78.85
25420;BME280;13354;48.174;11.566;2023-10-31T10:01:02;94708.44;;;10.80;79.03
25420;BME280;13354;48.174;11.566;2023-10-31T10:03:29;94714.53;;;10.80;79.12
25420;BME280;13354;48.174;11.566;2023-10-31T10:05:55;94713.78;;;10.73;78.98
25420;BME280;13354;48.174;11.566;2023-10-31T10:08:20;94723.84;;;10.64;79.11
25420;BME280;13354;48.174;11.566;2023-10-31T10:10:46;94733.13;;;10.74;78.53
25420;BME280;13354;48.174;11.566;2023-10-31T10:13:12;94737.84;;;10.72;78.61
25420;BME280;13354;48.174;11.566;2023-10-31T10:15:45;94750.69;;;10.68;79.29
25420;BME280;13354;48.174;11.566;2023-10-31T10:18:24;94760.03;;;10.71;79.31
25420;BME280;13354;48.174;11.566;2023-10-31T10:21:01;94769.09;;;10.81;79.00
25420;BME280;13354;48.174;11.566;2023-10-31T10:23:27;94763.00;;;10.81;78.90
25420;BME280;13354;48.174;11.566;2023-10-31T10:25:54;94758.94;;;11.03;78.53
25420;BME280;13354;48.174;11.566;2023-10-31T10:28:20;94756.47;;;11.08;77.53
25420;BME280;13354;48.174;11.566;2023-10-31T10:30:48;94758.56;;;11.00;76.63
25420;BME280;13354;48.174;11.566;2023-10-31T10:33:14;94764.56;;;11.13;76.75
25420;BME280;13354;48.174;11.566;2023-10-31T10:35:41;94766.31;;;11.01;77.02
25420;BME280;13354;48.174;11.566;2023-10-31T10:38:11;94766.91;;;11.03;75.89
25420;BME280;13354;48.174;11.566;2023-10-31T10:40:40;94760.78;;;11.03;76.68
25420;BME280;13354;48.174;11.566;2023-10-31T10:43:20;94759.84;;;10.97;77.12
25420;BME280;13354;48.174;11.566;2023-10-31T10:45:45;94765.06;;;11.04;77.33
25420;BME280;13354;48.174;11.566;2023-10-31T10:48:15;94766.03;;;11.09;76.97
25420;BME280;13354;48.174;11.566;2023-10-31T10:50:45;94774.50;;;11.18;76.98
25420;BME280;13354;48.174;11.566;2023-10-31T10:53:22;94763.84;;;11.25;77.01
25420;BME280;13354;48.174;11.566;2023-10-31T10:55:51;94762.41;;;11.29;76.42
25420;BME280;13354;48.174;11.566;2023-10-31T10:58:34;94750.09;;;11.16;76.20
25420;BME280;13354;48.174;11.566;2023-10-31T11:01:03;94742.94;;;11.17;75.91
25420;BME280;13354;48.174;11.566;2023-10-31T11:03:29;94747.97;;;11.25;75.78
25420;BME280;13354;48.174;11.566;2023-10-31T11:05:55;94755.72;;;11.45;75.09
25420;BME280;13354;48.174;11.566;2023-10-31T11:08:23;94754.88;;;11.26;75.51
25420;BME280;13354;48.174;11.566;2023-10-31T11:10:50;94751.88;;;11.41;74.84
25420;BME280;13354;48.174;11.566;2023-10-31T11:13:16;94754.16;;;11.37;75.41
25420;BME280;13354;48.174;11.566;2023-10-31T11:15:42;94744.72;;;11.41;74.92
25420;BME280;13354;48.174;11.566;2023-10-31T11:18:07;94748.44;;;11.58;73.76
25420;BME280;13354;48.174;11.566;2023-10-31T11:20:34;94755.50;;;11.65;73.19
25420;BME280;13354;48.174;11.566;2023-10-31T11:23:01;94751.38;;;11.50;73.45
25420;BME280;13354;48.174;11.566;2023-10-31T11:25:31;94751.25;;;11.64;72.94
25420;BME280;13354;48.174;11.566;2023-10-31T11:27:57;94755.66;;;11.70;73.07
25420;BME280;13354;48.174;11.566;2023-10-31T11:30:35;94755.28;;;11.66;72.83
25420;BME280;13354;48.174;11.566;2023-10-31T11:33:01;94747.19;;;11.61;73.01
25420;BME280;13354;48.174;11.566;2023-10-31T11:35:33;94745.47;;;11.67;72.33
25420;BME280;13354;48.174;11.566;2023-10-31T11:38:06;94753.00;;;11.70;72.04
25420;BME280;13354;48.174;11.566;2023-10-31T11:40:32;94753.22;;;11.68;71.17
25420;BME280;13354;48.174;11.566;2023-10-31T11:43:01;94743.06;;;11.65;71.24
25420;BME280;13354;48.174;11.566;2023-10-31T11:45:40;94748.22;;;11.60;71.64
25420;BME280;13354;48.174;11.566;2023-10-31T11:48:13;94738.94;;;11.69;71.70
25420;BME280;13354;48.174;11.566;2023-10-31T11:50:39;94744.25;;;11.88;70.98
25420;BME280;13354;48.174;11.566;2023-10-31T11:55:33;94741.59;;;11.88;70.53
25420;BME280;13354;48.174;11.566;2023-10-31T11:58:20;94739.06;;;11.74;70.80
25420;BME280;13354;48.174;11.566;2023-10-31T12:00:51;94741.00;;;11.85;70.28
25420;BME280;13354;48.174;11.566;2023-10-31T12:03:17;94739.53;;;11.71;69.66
25420;BME280;13354;48.174;11.566;2023-10-31T12:05:58;94740.28;;;11.78;70.03
25420;BME280;13354;48.174;11.566;2023-10-31T12:08:30;94740.19;;;11.85;69.99
25420;BME280;13354;48.174;11.566;2023-10-31T12:11:15;94728.78;;;11.84;69.90
25420;BME280;13354;48.174;11.566;2023-10-31T12:13:59;94735.84;;;12.09;69.85
25420;BME280;13354;48.174;11.566;2023-10-31T12:16:26;94732.00;;;12.05;69.44
25420;BME280;13354;48.174;11.566;2023-10-31T12:19:00;94740.28;;;11.97;69.37
25420;BME280;13354;48.174;11.566;2023-10-31T12:21:43;94727.81;;;11.97;69.81
25420;BME280;13354;48.174;11.566;2023-10-31T12:24:10;94727.81;;;11.97;69.51
25420;BME280;13354;48.174;11.566;2023-10-31T12:26:36;94730.84;;;12.01;69.82
25420;BME280;13354;48.174;11.566;2023-10-31T12:29:14;94728.97;;;12.20;69.89
25420;BME280;13354;48.174;11.566;2023-10-31T12:31:45;94730.66;;;12.14;69.55
25420;BME280;13354;48.174;11.566;2023-10-31T12:34:12;94728.97;;;12.20;69.74
25420;BME280;13354;48.174;11.566;2023-10-31T12:36:39;94727.19;;;12.14;69.36
25420;BME280;13354;48.174;11.566;2023-10-31T12:39:10;94727.44;;;12.12;69.18
25420;BME280;13354;48.174;11.566;2023-10-31T12:41:40;94728.25;;;12.13;69.34
25420;BME280;13354;48.174;11.566;2023-10-31T12:44:07;94741.00;;;12.34;68.96
25420;BME280;13354;48.174;11.566;2023-10-31T12:46:39;94733.25;;;12.32;68.44